sensor_id;sensor_type;location;lat;lon;timestamp;temperature;humidity
13330;DHT22;6734;48.638;8.896;2023-08-20T00:04:25;21.20;99.90
13330;DHT22;6734;48.638;8.896;2023-08-20T00:11:43;21.00;99.90
13330;DHT22;6734;48.638;8.896;2023-08-20T00:14:15;20.70;99.90
13330;DHT22;6734;48.638;8.896;2023-08-20T00:16:42;20.60;99.90
13330;DHT22;6734;48.638;8.896;2023-08-20T00:19:08;20.40;99.90
13330;DHT22;6734;48.638;8.896;2023-08-20T00:24:00;20.70;99.90
13330;DHT22;6734;48.638;8.896;2023-08-20T00:28:52;21.20;99.90
13330;DHT22;6734;48.638;8.896;2023-08-20T00:31:17;21.10;99.90
13330;DHT22;6734;48.638;8.896;2023-08-20T00:36:08;21.10;99.90
13330;DHT22;6734;48.638;8.896;2023-08-20T00:41:00;20.90;99.90
13330;DHT22;6734;48.638;8.896;2023-08-20T00:48:18;20.90;99.90
13330;DHT22;6734;48.638;8.896;2023-08-20T00:50:44;21.10;99.90
13330;DHT22;6734;48.638;8.896;2023-08-20T00:53:11;21.00;99.90
13330;DHT22;6734;48.638;8.896;2023-08-20T00:55:37;21.00;99.90
13330;DHT22;6734;48.638;8.896;2023-08-20T00:58:03;20.80;99.90
13330;DHT22;6734;48.638;8.896;2023-08-20T01:00:29;20.80;99.90
13330;DHT22;6734;48.638;8.896;2023-08-20T01:02:55;20.70;99.90
13330;DHT22;6734;48.638;8.896;2023-08-20T01:05:20;20.70;99.90
13330;DHT22;6734;48.638;8.896;2023-08-20T01:08:08;20.60;99.90
13330;DHT22;6734;48.638;8.896;2023-08-20T01:10:58;20.70;99.90
13330;DHT22;6734;48.638;8.896;2023-08-20T01:15:50;20.80;99.90
13330;DHT22;6734;48.638;8.896;2023-08-20T01:18:16;20.80;99.90
13330;DHT22;6734;48.638;8.896;2023-08-20T01:20:47;20.70;99.90
13330;DHT22;6734;48.638;8.896;2023-08-20T01:26:15;20.50;99.90
13330;DHT22;6734;48.638;8.896;2023-08-20T01:28:46;20.40;99.90
13330;DHT22;6734;48.638;8.896;2023-08-20T01:31:12;20.50;99.90
13330;DHT22;6734;48.638;8.896;2023-08-20T01:33:40;20.50;99.90
13330;DHT22;6734;48.638;8.896;2023-08-20T01:36:07;20.50;99.90
13330;DHT22;6734;48.638;8.896;2023-08-20T01:38:35;20.50;99.90
13330;DHT22;6734;48.638;8.896;2023-08-20T01:41:01;20.50;99.90
13330;DHT22;6734;48.638;8.896;2023-08-20T01:43:27;20.40;99.90
13330;DHT22;6734;48.638;8.896;2023-08-20T01:45:53;20.20;99.90
13330;DHT22;6734;48.638;8.896;2023-08-20T01:48:18;20.20;99.90
13330;DHT22;6734;48.638;8.896;2023-08-20T01:50:44;20.30;99.90
13330;DHT22;6734;48.638;8.896;2023-08-20T01:53:11;20.50;99.90
13330;DHT22;6734;48.638;8.896;2023-08-20T02:02:56;20.30;99.90
13330;DHT22;6734;48.638;8.896;2023-08-20T02:05:21;20.30;99.90
13330;DHT22;6734;48.638;8.896;2023-08-20T02:10:13;20.50;99.90
13330;DHT22;6734;48.638;8.896;2023-08-20T02:15:06;20.30;99.90
13330;DHT22;6734;48.638;8.896;2023-08-20T02:17:31;20.20;99.90
13330;DHT22;6734;48.638;8.896;2023-08-20T02:19:57;20.20;99.90
13330;DHT22;6734;48.638;8.896;2023-08-20T02:24:48;20.30;99.90
13330;DHT22;6734;48.638;8.896;2023-08-20T02:27:14;20.30;99.90
13330;DHT22;6734;48.638;8.896;2023-08-20T02:29:39;20.30;99.90
13330;DHT22;6734;48.638;8.896;2023-08-20T02:32:05;20.40;99.90
13330;DHT22;6734;48.638;8.896;2023-08-20T02:34:31;20.30;99.90
13330;DHT22;6734;48.638;8.896;2023-08-20T02:39:22;19.90;99.90
13330;DHT22;6734;48.638;8.896;2023-08-20T02:41:49;19.90;99.90
13330;DHT22;6734;48.638;8.896;2023-08-20T02:44:15;20.00;99.90
13330;DHT22;6734;48.638;8.896;2023-08-20T02:46:40;20.10;99.90
13330;DHT22;6734;48.638;8.896;2023-08-20T02:53:58;20.00;99.90
13330;DHT22;6734;48.638;8.896;2023-08-20T02:56:23;19.90;99.90
13330;DHT22;6734;48.638;8.896;2023-08-20T02:58:49;19.80;99.90
13330;DHT22;6734;48.638;8.896;2023-08-20T03:01:19;19.50;99.90
13330;DHT22;6734;48.638;8.896;2023-08-20T03:03:45;19.50;99.90
13330;DHT22;6734;48.638;8.896;2023-08-20T03:06:10;19.60;99.90
13330;DHT22;6734;48.638;8.896;2023-08-20T03:08:36;19.70;99.90
13330;DHT22;6734;48.638;8.896;2023-08-20T03:11:01;19.70;99.90
13330;DHT22;6734;48.638;8.896;2023-08-20T03:13:27;19.90;99.90
13330;DHT22;6734;48.638;8.896;2023-08-20T03:18:19;20.00;99.90
13330;DHT22;6734;48.638;8.896;2023-08-20T03:20:44;20.10;99.90
13330;DHT22;6734;48.638;8.896;2023-08-20T03:23:10;20.20;99.90
13330;DHT22;6734;48.638;8.896;2023-08-20T03:25:35;20.20;99.90
13330;DHT22;6734;48.638;8.896;2023-08-20T03:28:01;20.20;99.90
13330;DHT22;6734;48.638;8.896;2023-08-20T03:30:26;20.20;99.90
13330;DHT22;6734;48.638;8.896;2023-08-20T03:35:18;20.10;99.90
13330;DHT22;6734;48.638;8.896;2023-08-20T03:37:44;19.80;99.90
13330;DHT22;6734;48.638;8.896;2023-08-20T03:42:36;19.70;99.90
13330;DHT22;6734;48.638;8.896;2023-08-20T03:45:01;19.70;99.90
13330;DHT22;6734;48.638;8.896;2023-08-20T03:54:45;19.40;99.90
13330;DHT22;6734;48.638;8.896;2023-08-20T03:57:11;19.40;99.90
13330;DHT22;6734;48.638;8.896;2023-08-20T03:59:36;19.50;99.90
13330;DHT22;6734;48.638;8.896;2023-08-20T04:02:02;19.40;99.90
13330;DHT22;6734;48.638;8.896;2023-08-20T04:04:28;19.30;99.90
13330;DHT22;6734;48.638;8.896;2023-08-20T04:06:53;19.20;99.90
13330;DHT22;6734;48.638;8.896;2023-08-20T04:09:19;19.20;99.90
13330;DHT22;6734;48.638;8.896;2023-08-20T04:11:45;19.20;99.90
13330;DHT22;6734;48.638;8.896;2023-08-20T04:14:11;19.20;99.90
13330;DHT22;6734;48.638;8.896;2023-08-20T04:16:36;19.30;99.90
13330;DHT22;6734;48.638;8.896;2023-08-20T04:19:02;19.30;99.90
13330;DHT22;6734;48.638;8.896;2023-08-20T04:21:28;19.30;99.90
13330;DHT22;6734;48.638;8.896;2023-08-20T04:23:53;19.30;99.90
13330;DHT22;6734;48.638;8.896;2023-08-20T04:26:19;19.40;99.90
13330;DHT22;6734;48.638;8.896;2023-08-20T04:28:44;19.40;99.90
13330;DHT22;6734;48.638;8.896;2023-08-20T04:33:36;19.40;99.90
13330;DHT22;6734;48.638;8.896;2023-08-20T04:36:02;19.20;99.90
13330;DHT22;6734;48.638;8.896;2023-08-20T04:38:27;19.20;99.90
13330;DHT22;6734;48.638;8.896;2023-08-20T04:40:53;19.20;99.90
13330;DHT22;6734;48.638;8.896;2023-08-20T04:43:18;19.20;99.90
13330;DHT22;6734;48.638;8.896;2023-08-20T04:48:10;19.30;99.90
13330;DHT22;6734;48.638;8.896;2023-08-20T04:50:35;19.60;99.90
13330;DHT22;6734;48.638;8.896;2023-08-20T04:53:01;19.80;99.90
13330;DHT22;6734;48.638;8.896;2023-08-20T04:55:27;19.90;99.90
13330;DHT22;6734;48.638;8.896;2023-08-20T05:00:20;20.10;99.90
13330;DHT22;6734;48.638;8.896;2023-08-20T05:05:11;19.90;99.90
13330;DHT22;6734;48.638;8.896;2023-08-20T05:07:37;19.90;99.90
13330;DHT22;6734;48.638;8.896;2023-08-20T05:10:03;19.80;99.90
13330;DHT22;6734;48.638;8.896;2023-08-20T05:12:29;19.80;99.90
13330;DHT22;6734;48.638;8.896;2023-08-20T05:14:55;19.80;99.90
13330;DHT22;6734;48.638;8.896;2023-08-20T05:17:20;19.80;99.90
13330;DHT22;6734;48.638;8.896;2023-08-20T05:19:46;19.90;99.90
13330;DHT22;6734;48.638;8.896;2023-08-20T05:22:11;19.90;99.90
13330;DHT22;6734;48.638;8.896;2023-08-20T05:24:38;20.00;99.90
13330;DHT22;6734;48.638;8.896;2023-08-20T05:27:16;20.10;99.90
13330;DHT22;6734;48.638;8.896;2023-08-20T05:29:44;20.10;99.90
13330;DHT22;6734;48.638;8.896;2023-08-20T05:34:36;20.40;99.90
13330;DHT22;6734;48.638;8.896;2023-08-20T05:37:02;20.30;99.90
13330;DHT22;6734;48.638;8.896;2023-08-20T05:39:30;20.30;99.90
13330;DHT22;6734;48.638;8.896;2023-08-20T05:41:56;20.50;99.90
13330;DHT22;6734;48.638;8.896;2023-08-20T05:44:21;20.50;99.90
13330;DHT22;6734;48.638;8.896;2023-08-20T05:49:14;20.80;99.90
13330;DHT22;6734;48.638;8.896;2023-08-20T05:51:42;21.00;99.90
13330;DHT22;6734;48.638;8.896;2023-08-20T05:56:33;21.30;99.90
13330;DHT22;6734;48.638;8.896;2023-08-20T05:58:59;21.30;99.90
13330;DHT22;6734;48.638;8.896;2023-08-20T06:01:24;21.40;99.90
13330;DHT22;6734;48.638;8.896;2023-08-20T06:03:50;21.30;99.90
13330;DHT22;6734;48.638;8.896;2023-08-20T06:06:15;21.40;99.90
13330;DHT22;6734;48.638;8.896;2023-08-20T06:08:41;21.60;99.90
13330;DHT22;6734;48.638;8.896;2023-08-20T06:11:07;21.80;99.90
13330;DHT22;6734;48.638;8.896;2023-08-20T06:13:32;21.90;99.90
13330;DHT22;6734;48.638;8.896;2023-08-20T06:15:58;21.90;99.90
13330;DHT22;6734;48.638;8.896;2023-08-20T06:18:23;22.00;99.90
13330;DHT22;6734;48.638;8.896;2023-08-20T06:20:49;22.00;99.90
13330;DHT22;6734;48.638;8.896;2023-08-20T06:23:14;22.00;99.90
13330;DHT22;6734;48.638;8.896;2023-08-20T06:25:40;22.10;99.90
13330;DHT22;6734;48.638;8.896;2023-08-20T06:37:49;22.90;99.90
13330;DHT22;6734;48.638;8.896;2023-08-20T06:42:40;23.20;99.90
13330;DHT22;6734;48.638;8.896;2023-08-20T06:45:06;23.40;99.90
13330;DHT22;6734;48.638;8.896;2023-08-20T06:47:33;23.70;99.90
13330;DHT22;6734;48.638;8.896;2023-08-20T06:49:58;23.80;99.90
13330;DHT22;6734;48.638;8.896;2023-08-20T06:54:50;23.90;99.90
13330;DHT22;6734;48.638;8.896;2023-08-20T06:57:16;23.80;99.90
13330;DHT22;6734;48.638;8.896;2023-08-20T06:59:41;23.80;99.90
13330;DHT22;6734;48.638;8.896;2023-08-20T07:07:01;24.20;99.90
13330;DHT22;6734;48.638;8.896;2023-08-20T07:09:27;24.20;99.90
13330;DHT22;6734;48.638;8.896;2023-08-20T07:11:52;24.20;99.90
13330;DHT22;6734;48.638;8.896;2023-08-20T07:14:18;24.30;99.90
13330;DHT22;6734;48.638;8.896;2023-08-20T07:19:09;24.50;99.90
13330;DHT22;6734;48.638;8.896;2023-08-20T07:21:35;24.50;99.90
13330;DHT22;6734;48.638;8.896;2023-08-20T07:24:00;24.30;99.90
13330;DHT22;6734;48.638;8.896;2023-08-20T07:26:26;24.40;99.90
13330;DHT22;6734;48.638;8.896;2023-08-20T07:28:52;24.40;99.90
13330;DHT22;6734;48.638;8.896;2023-08-20T07:31:24;24.40;99.90
13330;DHT22;6734;48.638;8.896;2023-08-20T07:33:51;24.50;99.90
13330;DHT22;6734;48.638;8.896;2023-08-20T07:36:17;24.60;99.90
13330;DHT22;6734;48.638;8.896;2023-08-20T07:38:43;24.80;99.90
13330;DHT22;6734;48.638;8.896;2023-08-20T07:41:09;25.00;99.90
13330;DHT22;6734;48.638;8.896;2023-08-20T07:43:37;25.10;99.90
13330;DHT22;6734;48.638;8.896;2023-08-20T07:46:03;25.00;99.90
13330;DHT22;6734;48.638;8.896;2023-08-20T07:48:29;25.00;99.90
13330;DHT22;6734;48.638;8.896;2023-08-20T07:50:54;25.00;99.90
13330;DHT22;6734;48.638;8.896;2023-08-20T07:53:20;24.90;99.90
13330;DHT22;6734;48.638;8.896;2023-08-20T07:55:45;25.10;99.90
13330;DHT22;6734;48.638;8.896;2023-08-20T07:58:11;25.30;99.90
13330;DHT22;6734;48.638;8.896;2023-08-20T08:03:03;25.60;99.90
13330;DHT22;6734;48.638;8.896;2023-08-20T08:05:28;25.60;99.90
13330;DHT22;6734;48.638;8.896;2023-08-20T08:07:54;25.60;99.90
13330;DHT22;6734;48.638;8.896;2023-08-20T08:10:20;25.40;99.90
13330;DHT22;6734;48.638;8.896;2023-08-20T08:12:45;25.50;99.90
13330;DHT22;6734;48.638;8.896;2023-08-20T08:15:11;25.50;99.90
13330;DHT22;6734;48.638;8.896;2023-08-20T08:17:37;25.70;99.90
13330;DHT22;6734;48.638;8.896;2023-08-20T08:20:03;25.80;99.90
13330;DHT22;6734;48.638;8.896;2023-08-20T08:22:29;25.90;99.90
13330;DHT22;6734;48.638;8.896;2023-08-20T08:24:54;26.00;99.90
13330;DHT22;6734;48.638;8.896;2023-08-20T08:27:20;26.10;99.90
13330;DHT22;6734;48.638;8.896;2023-08-20T08:29:45;26.20;99.90
13330;DHT22;6734;48.638;8.896;2023-08-20T08:32:11;26.40;99.90
13330;DHT22;6734;48.638;8.896;2023-08-20T08:34:36;26.70;99.90
13330;DHT22;6734;48.638;8.896;2023-08-20T08:37:02;26.70;99.90
13330;DHT22;6734;48.638;8.896;2023-08-20T08:39:27;26.40;99.90
13330;DHT22;6734;48.638;8.896;2023-08-20T08:42:00;26.20;99.90
13330;DHT22;6734;48.638;8.896;2023-08-20T08:46:54;26.30;99.90
13330;DHT22;6734;48.638;8.896;2023-08-20T08:49:19;26.30;99.90
13330;DHT22;6734;48.638;8.896;2023-08-20T08:51:46;26.30;99.90
13330;DHT22;6734;48.638;8.896;2023-08-20T08:54:13;26.30;99.90
13330;DHT22;6734;48.638;8.896;2023-08-20T08:56:39;26.50;99.90
13330;DHT22;6734;48.638;8.896;2023-08-20T09:01:31;26.70;99.90
13330;DHT22;6734;48.638;8.896;2023-08-20T09:03:57;26.80;99.90
13330;DHT22;6734;48.638;8.896;2023-08-20T09:06:22;26.80;99.90
13330;DHT22;6734;48.638;8.896;2023-08-20T09:08:48;26.80;99.90
13330;DHT22;6734;48.638;8.896;2023-08-20T09:11:13;26.90;99.90
13330;DHT22;6734;48.638;8.896;2023-08-20T09:13:41;27.00;99.90
13330;DHT22;6734;48.638;8.896;2023-08-20T09:18:41;27.20;99.90
13330;DHT22;6734;48.638;8.896;2023-08-20T09:23:36;27.30;99.90
13330;DHT22;6734;48.638;8.896;2023-08-20T09:26:03;27.40;99.90
13330;DHT22;6734;48.638;8.896;2023-08-20T09:28:42;27.50;99.90
13330;DHT22;6734;48.638;8.896;2023-08-20T09:33:34;27.50;99.90
13330;DHT22;6734;48.638;8.896;2023-08-20T09:36:00;27.30;99.90
13330;DHT22;6734;48.638;8.896;2023-08-20T09:38:27;27.20;99.90
13330;DHT22;6734;48.638;8.896;2023-08-20T09:40:54;27.50;99.90
13330;DHT22;6734;48.638;8.896;2023-08-20T09:43:23;27.70;99.90
13330;DHT22;6734;48.638;8.896;2023-08-20T09:45:54;28.00;99.90
13330;DHT22;6734;48.638;8.896;2023-08-20T09:48:20;28.20;99.90
13330;DHT22;6734;48.638;8.896;2023-08-20T09:56:20;28.10;99.90
13330;DHT22;6734;48.638;8.896;2023-08-20T09:58:48;28.20;99.90
13330;DHT22;6734;48.638;8.896;2023-08-20T10:01:15;28.40;99.90
13330;DHT22;6734;48.638;8.896;2023-08-20T10:03:41;28.40;99.90
13330;DHT22;6734;48.638;8.896;2023-08-20T10:06:08;28.40;99.90
13330;DHT22;6734;48.638;8.896;2023-08-20T10:08:34;28.60;99.90
13330;DHT22;6734;48.638;8.896;2023-08-20T10:13:27;28.80;99.90
13330;DHT22;6734;48.638;8.896;2023-08-20T10:15:53;28.80;99.90
13330;DHT22;6734;48.638;8.896;2023-08-20T10:18:21;28.80;99.90
13330;DHT22;6734;48.638;8.896;2023-08-20T10:20:50;28.90;99.90
13330;DHT22;6734;48.638;8.896;2023-08-20T10:23:20;29.00;99.90
13330;DHT22;6734;48.638;8.896;2023-08-20T10:25:46;28.90;99.90
13330;DHT22;6734;48.638;8.896;2023-08-20T10:28:25;29.10;99.90
13330;DHT22;6734;48.638;8.896;2023-08-20T10:31:08;29.30;99.90
13330;DHT22;6734;48.638;8.896;2023-08-20T10:36:20;29.00;99.90
13330;DHT22;6734;48.638;8.896;2023-08-20T10:38:54;29.20;99.90
13330;DHT22;6734;48.638;8.896;2023-08-20T10:41:25;29.20;99.90
13330;DHT22;6734;48.638;8.896;2023-08-20T10:43:51;29.20;99.90
13330;DHT22;6734;48.638;8.896;2023-08-20T10:46:19;29.10;99.90
13330;DHT22;6734;48.638;8.896;2023-08-20T10:51:25;29.50;99.90
13330;DHT22;6734;48.638;8.896;2023-08-20T10:56:42;29.90;99.90
13330;DHT22;6734;48.638;8.896;2023-08-20T10:59:28;30.00;99.90
13330;DHT22;6734;48.638;8.896;2023-08-20T11:06:54;30.60;99.90
13330;DHT22;6734;48.638;8.896;2023-08-20T11:09:21;30.40;99.90
13330;DHT22;6734;48.638;8.896;2023-08-20T11:11:48;30.50;99.90
13330;DHT22;6734;48.638;8.896;2023-08-20T11:14:14;30.70;99.90
13330;DHT22;6734;48.638;8.896;2023-08-20T11:16:41;30.90;99.90
13330;DHT22;6734;48.638;8.896;2023-08-20T11:21:39;31.10;99.90
13330;DHT22;6734;48.638;8.896;2023-08-20T11:26:35;31.30;99.90
13330;DHT22;6734;48.638;8.896;2023-08-20T11:29:05;31.10;99.90
13330;DHT22;6734;48.638;8.896;2023-08-20T11:36:23;32.80;99.90
13330;DHT22;6734;48.638;8.896;2023-08-20T11:38:53;34.00;99.90
13330;DHT22;6734;48.638;8.896;2023-08-20T11:41:19;34.30;99.90
13330;DHT22;6734;48.638;8.896;2023-08-20T11:46:15;35.40;99.90
13330;DHT22;6734;48.638;8.896;2023-08-20T11:49:04;35.90;99.90
13330;DHT22;6734;48.638;8.896;2023-08-20T11:51:41;35.90;99.90
13330;DHT22;6734;48.638;8.896;2023-08-20T11:54:11;35.90;99.90
13330;DHT22;6734;48.638;8.896;2023-08-20T11:56:47;36.00;99.90
13330;DHT22;6734;48.638;8.896;2023-08-20T11:59:14;36.00;99.90
13330;DHT22;6734;48.638;8.896;2023-08-20T12:01:40;35.70;99.90
13330;DHT22;6734;48.638;8.896;2023-08-20T12:04:08;36.70;99.90
13330;DHT22;6734;48.638;8.896;2023-08-20T12:06:36;37.60;99.90
13330;DHT22;6734;48.638;8.896;2023-08-20T12:09:03;38.10;99.90
13330;DHT22;6734;48.638;8.896;2023-08-20T12:11:48;37.60;99.90
13330;DHT22;6734;48.638;8.896;2023-08-20T12:14:14;37.40;99.90
13330;DHT22;6734;48.638;8.896;2023-08-20T12:19:05;36.90;99.90
13330;DHT22;6734;48.638;8.896;2023-08-20T12:21:31;36.10;99.90
13330;DHT22;6734;48.638;8.896;2023-08-20T12:23:57;35.70;99.90
13330;DHT22;6734;48.638;8.896;2023-08-20T12:26:22;36.30;99.90
13330;DHT22;6734;48.638;8.896;2023-08-20T12:28:48;36.30;99.90
13330;DHT22;6734;48.638;8.896;2023-08-20T12:31:13;37.00;99.90
13330;DHT22;6734;48.638;8.896;2023-08-20T12:36:05;37.90;99.90
13330;DHT22;6734;48.638;8.896;2023-08-20T12:38:31;37.80;99.90
13330;DHT22;6734;48.638;8.896;2023-08-20T12:40:59;37.50;99.90
13330;DHT22;6734;48.638;8.896;2023-08-20T12:43:25;37.80;99.90
13330;DHT22;6734;48.638;8.896;2023-08-20T12:45:51;38.10;99.90
13330;DHT22;6734;48.638;8.896;2023-08-20T12:50:42;38.70;99.90
13330;DHT22;6734;48.638;8.896;2023-08-20T12:53:08;39.10;99.90
13330;DHT22;6734;48.638;8.896;2023-08-20T12:55:33;39.70;99.90
13330;DHT22;6734;48.638;8.896;2023-08-20T13:02:53;39.90;99.90
13330;DHT22;6734;48.638;8.896;2023-08-20T13:07:46;39.80;99.90
13330;DHT22;6734;48.638;8.896;2023-08-20T13:10:12;39.50;99.90
13330;DHT22;6734;48.638;8.896;2023-08-20T13:12:41;39.10;99.90
13330;DHT22;6734;48.638;8.896;2023-08-20T13:15:07;38.80;99.90
13330;DHT22;6734;48.638;8.896;2023-08-20T13:19:59;38.70;99.90
13330;DHT22;6734;48.638;8.896;2023-08-20T13:22:24;38.00;99.90
13330;DHT22;6734;48.638;8.896;2023-08-20T13:24:50;37.90;99.90
13330;DHT22;6734;48.638;8.896;2023-08-20T13:27:15;37.80;99.90
13330;DHT22;6734;48.638;8.896;2023-08-20T13:29:41;38.20;99.90
13330;DHT22;6734;48.638;8.896;2023-08-20T13:32:07;38.30;99.90
13330;DHT22;6734;48.638;8.896;2023-08-20T13:34:32;38.80;99.90
13330;DHT22;6734;48.638;8.896;2023-08-20T13:41:51;40.40;99.90
13330;DHT22;6734;48.638;8.896;2023-08-20T13:44:16;40.10;99.90
13330;DHT22;6734;48.638;8.896;2023-08-20T13:46:42;39.10;99.90
13330;DHT22;6734;48.638;8.896;2023-08-20T13:49:07;39.60;99.90
13330;DHT22;6734;48.638;8.896;2023-08-20T13:51:33;38.90;99.90
13330;DHT22;6734;48.638;8.896;2023-08-20T13:53:59;37.10;99.90
13330;DHT22;6734;48.638;8.896;2023-08-20T13:56:24;36.80;99.90
13330;DHT22;6734;48.638;8.896;2023-08-20T13:58:51;36.20;99.90
13330;DHT22;6734;48.638;8.896;2023-08-20T14:01:17;35.70;99.90
13330;DHT22;6734;48.638;8.896;2023-08-20T14:03:43;35.60;99.90
13330;DHT22;6734;48.638;8.896;2023-08-20T14:08:34;34.40;99.90
13330;DHT22;6734;48.638;8.896;2023-08-20T14:11:00;34.50;99.90
13330;DHT22;6734;48.638;8.896;2023-08-20T14:13:25;34.70;99.90
13330;DHT22;6734;48.638;8.896;2023-08-20T14:15:51;34.10;99.90
13330;DHT22;6734;48.638;8.896;2023-08-20T14:18:16;33.90;99.90
13330;DHT22;6734;48.638;8.896;2023-08-20T14:20:42;33.70;99.90
13330;DHT22;6734;48.638;8.896;2023-08-20T14:23:08;33.60;99.90
13330;DHT22;6734;48.638;8.896;2023-08-20T14:25:34;33.80;99.90
13330;DHT22;6734;48.638;8.896;2023-08-20T14:28:00;33.70;99.90
13330;DHT22;6734;48.638;8.896;2023-08-20T14:30:25;33.40;99.90
13330;DHT22;6734;48.638;8.896;2023-08-20T14:32:52;32.90;99.90
13330;DHT22;6734;48.638;8.896;2023-08-20T14:35:19;33.10;99.90
13330;DHT22;6734;48.638;8.896;2023-08-20T14:37:45;33.90;99.90
13330;DHT22;6734;48.638;8.896;2023-08-20T14:42:37;35.90;99.90
13330;DHT22;6734;48.638;8.896;2023-08-20T14:45:03;36.10;99.90
13330;DHT22;6734;48.638;8.896;2023-08-20T14:47:30;37.20;99.90
13330;DHT22;6734;48.638;8.896;2023-08-20T14:54:48;38.80;99.90
13330;DHT22;6734;48.638;8.896;2023-08-20T14:57:14;38.00;99.90
13330;DHT22;6734;48.638;8.896;2023-08-20T14:59:43;37.90;99.90
13330;DHT22;6734;48.638;8.896;2023-08-20T15:04:34;39.20;99.90
13330;DHT22;6734;48.638;8.896;2023-08-20T15:07:00;38.60;99.90
13330;DHT22;6734;48.638;8.896;2023-08-20T15:09:26;37.30;99.90
13330;DHT22;6734;48.638;8.896;2023-08-20T15:11:51;36.30;99.90
13330;DHT22;6734;48.638;8.896;2023-08-20T15:14:17;36.10;99.90
13330;DHT22;6734;48.638;8.896;2023-08-20T15:16:43;35.20;99.90
13330;DHT22;6734;48.638;8.896;2023-08-20T15:21:34;34.80;99.90
13330;DHT22;6734;48.638;8.896;2023-08-20T15:24:00;35.10;99.90
13330;DHT22;6734;48.638;8.896;2023-08-20T15:28:51;36.40;99.90
13330;DHT22;6734;48.638;8.896;2023-08-20T15:31:17;36.80;99.90
13330;DHT22;6734;48.638;8.896;2023-08-20T15:33:43;37.10;99.90
13330;DHT22;6734;48.638;8.896;2023-08-20T15:38:34;38.00;99.90
13330;DHT22;6734;48.638;8.896;2023-08-20T15:43:26;38.70;99.90
13330;DHT22;6734;48.638;8.896;2023-08-20T15:48:18;37.80;99.90
13330;DHT22;6734;48.638;8.896;2023-08-20T15:50:43;37.80;99.90
13330;DHT22;6734;48.638;8.896;2023-08-20T15:55:35;37.50;99.90
13330;DHT22;6734;48.638;8.896;2023-08-20T15:58:00;37.80;99.90
13330;DHT22;6734;48.638;8.896;2023-08-20T16:00:26;37.90;99.90
13330;DHT22;6734;48.638;8.896;2023-08-20T16:02:52;38.10;99.90
13330;DHT22;6734;48.638;8.896;2023-08-20T16:05:19;38.30;99.90
13330;DHT22;6734;48.638;8.896;2023-08-20T16:07:44;38.30;99.90
13330;DHT22;6734;48.638;8.896;2023-08-20T16:10:10;38.00;99.90
13330;DHT22;6734;48.638;8.896;2023-08-20T16:15:06;37.70;99.90
13330;DHT22;6734;48.638;8.896;2023-08-20T16:17:32;37.20;99.90
13330;DHT22;6734;48.638;8.896;2023-08-20T16:19:58;37.20;99.90
13330;DHT22;6734;48.638;8.896;2023-08-20T16:24:53;34.80;99.90
13330;DHT22;6734;48.638;8.896;2023-08-20T16:27:19;34.70;99.90
13330;DHT22;6734;48.638;8.896;2023-08-20T16:29:44;34.60;99.90
13330;DHT22;6734;48.638;8.896;2023-08-20T16:32:10;33.30;99.90
13330;DHT22;6734;48.638;8.896;2023-08-20T16:34:36;33.00;99.90
13330;DHT22;6734;48.638;8.896;2023-08-20T16:37:01;32.90;99.90
13330;DHT22;6734;48.638;8.896;2023-08-20T16:39:28;32.70;99.90
13330;DHT22;6734;48.638;8.896;2023-08-20T16:41:53;32.50;99.90
13330;DHT22;6734;48.638;8.896;2023-08-20T16:44:19;32.20;99.90
13330;DHT22;6734;48.638;8.896;2023-08-20T16:46:46;32.10;99.90
13330;DHT22;6734;48.638;8.896;2023-08-20T16:49:12;32.40;99.90
13330;DHT22;6734;48.638;8.896;2023-08-20T16:51:38;33.20;99.90
13330;DHT22;6734;48.638;8.896;2023-08-20T16:54:03;34.20;99.90
13330;DHT22;6734;48.638;8.896;2023-08-20T16:56:29;34.80;99.90
13330;DHT22;6734;48.638;8.896;2023-08-20T16:58:55;34.90;99.90
13330;DHT22;6734;48.638;8.896;2023-08-20T17:01:20;35.30;99.90
13330;DHT22;6734;48.638;8.896;2023-08-20T17:03:46;35.90;99.90
13330;DHT22;6734;48.638;8.896;2023-08-20T17:06:12;35.80;99.90
13330;DHT22;6734;48.638;8.896;2023-08-20T17:08:37;35.10;99.90
13330;DHT22;6734;48.638;8.896;2023-08-20T17:11:06;34.90;99.90
13330;DHT22;6734;48.638;8.896;2023-08-20T17:13:33;35.10;99.90
13330;DHT22;6734;48.638;8.896;2023-08-20T17:15:59;35.40;99.90
13330;DHT22;6734;48.638;8.896;2023-08-20T17:18:24;35.90;99.90
13330;DHT22;6734;48.638;8.896;2023-08-20T17:23:16;35.60;99.90
13330;DHT22;6734;48.638;8.896;2023-08-20T17:25:42;35.80;99.90
13330;DHT22;6734;48.638;8.896;2023-08-20T17:28:08;36.00;99.90
13330;DHT22;6734;48.638;8.896;2023-08-20T17:30:33;35.70;99.90
13330;DHT22;6734;48.638;8.896;2023-08-20T17:32:59;35.10;99.90
13330;DHT22;6734;48.638;8.896;2023-08-20T17:35:25;34.10;99.90
13330;DHT22;6734;48.638;8.896;2023-08-20T17:37:51;33.30;99.90
13330;DHT22;6734;48.638;8.896;2023-08-20T17:40:17;32.30;99.90
13330;DHT22;6734;48.638;8.896;2023-08-20T17:42:42;32.00;99.90
13330;DHT22;6734;48.638;8.896;2023-08-20T17:45:08;31.50;99.90
13330;DHT22;6734;48.638;8.896;2023-08-20T17:47:36;31.70;99.90
13330;DHT22;6734;48.638;8.896;2023-08-20T17:50:05;31.40;99.90
13330;DHT22;6734;48.638;8.896;2023-08-20T17:52:30;31.10;99.90
13330;DHT22;6734;48.638;8.896;2023-08-20T17:54:56;31.20;99.90
13330;DHT22;6734;48.638;8.896;2023-08-20T17:57:21;31.40;99.90
13330;DHT22;6734;48.638;8.896;2023-08-20T17:59:47;31.10;99.90
13330;DHT22;6734;48.638;8.896;2023-08-20T18:02:13;31.00;99.90
13330;DHT22;6734;48.638;8.896;2023-08-20T18:04:38;30.70;99.90
13330;DHT22;6734;48.638;8.896;2023-08-20T18:07:04;30.40;99.90
13330;DHT22;6734;48.638;8.896;2023-08-20T18:11:58;29.70;99.90
13330;DHT22;6734;48.638;8.896;2023-08-20T18:14:24;29.60;99.90
13330;DHT22;6734;48.638;8.896;2023-08-20T18:16:49;29.50;99.90
13330;DHT22;6734;48.638;8.896;2023-08-20T18:19:15;29.30;99.90
13330;DHT22;6734;48.638;8.896;2023-08-20T18:21:41;29.20;99.90
13330;DHT22;6734;48.638;8.896;2023-08-20T18:24:07;29.20;99.90
13330;DHT22;6734;48.638;8.896;2023-08-20T18:26:32;29.40;99.90
13330;DHT22;6734;48.638;8.896;2023-08-20T18:28:58;29.50;99.90
13330;DHT22;6734;48.638;8.896;2023-08-20T18:31:24;29.50;99.90
13330;DHT22;6734;48.638;8.896;2023-08-20T18:33:49;29.40;99.90
13330;DHT22;6734;48.638;8.896;2023-08-20T18:36:15;29.00;99.90
13330;DHT22;6734;48.638;8.896;2023-08-20T18:38:41;28.90;99.90
13330;DHT22;6734;48.638;8.896;2023-08-20T18:43:35;28.70;99.90
13330;DHT22;6734;48.638;8.896;2023-08-20T18:46:02;28.60;99.90
13330;DHT22;6734;48.638;8.896;2023-08-20T18:48:31;28.40;99.90
13330;DHT22;6734;48.638;8.896;2023-08-20T18:53:23;28.10;99.90
13330;DHT22;6734;48.638;8.896;2023-08-20T18:55:49;28.10;99.90
13330;DHT22;6734;48.638;8.896;2023-08-20T18:58:15;28.00;99.90
13330;DHT22;6734;48.638;8.896;2023-08-20T19:00:40;28.00;99.90
13330;DHT22;6734;48.638;8.896;2023-08-20T19:03:06;27.90;99.90
13330;DHT22;6734;48.638;8.896;2023-08-20T19:05:32;27.80;99.90
13330;DHT22;6734;48.638;8.896;2023-08-20T19:07:58;27.80;99.90
13330;DHT22;6734;48.638;8.896;2023-08-20T19:12:50;27.40;99.90
13330;DHT22;6734;48.638;8.896;2023-08-20T19:15:15;27.30;99.90
13330;DHT22;6734;48.638;8.896;2023-08-20T19:17:41;27.20;99.90